Time;durP1;ratioP1;P1;durP2;ratioP2;P2;SDS_P1;SDS_P2;PMS_P1;PMS_P2;Temp;Humidity;BMP_temperature;BMP_pressure;BME280_temperature;BME280_humidity;BME280_pressure;Samples;Min_cycle;Max_cycle;Signal;HPM_P1;HPM_P2
2022/09/13 00:00:42;;;;;;;10.18;9.30;;;11.80;99.90;;;;;;5086571;28;20040;-59
2022/09/13 00:03:08;;;;;;;10.95;9.98;;;11.80;99.90;;;;;;5086131;28;20021;-59
2022/09/13 00:05:35;;;;;;;18.88;10.73;;;11.80;99.90;;;;;;5081656;28;20044;-65
2022/09/13 00:08:01;;;;;;;13.48;11.40;;;11.80;99.90;;;;;;5085748;28;20067;-60
2022/09/13 00:10:27;;;;;;;10.82;9.95;;;11.90;99.90;;;;;;5082345;28;20484;-61
2022/09/13 00:12:53;;;;;;;12.30;11.02;;;11.90;99.90;;;;;;5081877;28;20029;-60
2022/09/13 00:15:19;;;;;;;13.05;10.02;;;11.90;99.90;;;;;;5084229;28;20028;-60
2022/09/13 00:17:45;;;;;;;11.60;10.20;;;11.80;99.90;;;;;;5085508;28;20115;-59
2022/09/13 00:20:10;;;;;;;11.38;10.30;;;11.80;99.90;;;;;;5079150;28;20484;-61
2022/09/13 00:22:36;;;;;;;9.75;8.85;;;11.80;99.90;;;;;;5084790;28;20484;-60
2022/09/13 00:25:03;;;;;;;9.90;8.90;;;11.70;99.90;;;;;;5081643;28;20048;-60
2022/09/13 00:27:31;;;;;;;9.13;8.43;;;11.70;99.90;;;;;;5084016;28;20051;-61
2022/09/13 00:29:56;;;;;;;9.85;9.02;;;11.60;99.90;;;;;;5084768;28;20067;-59
2022/09/13 00:32:22;;;;;;;12.10;10.95;;;11.60;99.90;;;;;;5082282;28;20658;-59
2022/09/13 00:34:47;;;;;;;11.45;10.23;;;11.60;99.90;;;;;;5080322;28;20036;-59
2022/09/13 00:37:13;;;;;;;10.25;9.35;;;11.60;99.90;;;;;;5081247;28;20107;-59
2022/09/13 00:39:39;;;;;;;10.90;9.80;;;11.60;99.90;;;;;;5082241;28;20520;-61
2022/09/13 00:42:04;;;;;;;12.18;9.98;;;11.60;99.90;;;;;;5082770;28;20020;-60
2022/09/13 00:44:49;;;;;;;10.75;9.75;;;11.60;99.90;;;;;;5080244;28;20037;-59
2022/09/13 00:47:19;;;;;;;10.68;9.68;;;11.50;99.90;;;;;;5079770;28;20093;-59
2022/09/13 00:49:47;;;;;;;12.63;11.35;;;11.50;99.90;;;;;;5082396;28;20096;-60
2022/09/13 00:52:16;;;;;;;13.60;11.18;;;11.50;99.90;;;;;;5084210;28;20077;-61
2022/09/13 00:54:46;;;;;;;11.85;10.85;;;11.60;99.90;;;;;;5082400;28;20044;-60
2022/09/13 00:57:13;;;;;;;11.70;9.93;;;11.60;99.90;;;;;;5082361;28;20039;-59
2022/09/13 01:00:08;;;;;;;11.32;9.95;;;11.50;99.90;;;;;;5084092;28;20035;-61
2022/09/13 01:02:34;;;;;;;12.48;9.27;;;11.50;99.90;;;;;;5081304;28;20032;-61
2022/09/13 01:05:00;;;;;;;11.02;9.93;;;11.40;99.90;;;;;;5082512;28;20052;-61
2022/09/13 01:07:26;;;;;;;12.57;11.27;;;11.40;99.90;;;;;;5081227;28;20036;-60
2022/09/13 01:09:52;;;;;;;13.98;11.27;;;11.40;99.90;;;;;;5079838;28;20020;-63
2022/09/13 01:12:35;;;;;;;15.52;10.75;;;11.40;99.90;;;;;;5081264;28;20028;-62
2022/09/13 01:15:04;;;;;;;10.38;9.15;;;11.30;99.90;;;;;;5082294;28;20019;-60
2022/09/13 01:17:32;;;;;;;10.80;9.70;;;11.30;99.90;;;;;;5063003;28;20568;-60
2022/09/13 01:19:59;;;;;;;9.35;8.52;;;11.20;99.90;;;;;;5082041;28;20036;-60
2022/09/13 01:22:46;;;;;;;14.43;9.20;;;11.20;99.90;;;;;;5084414;28;20055;-61
2022/09/13 01:25:43;;;;;;;9.45;8.50;;;11.20;99.90;;;;;;5079997;28;20047;-62
2022/09/13 01:28:27;;;;;;;9.50;8.50;;;11.10;99.90;;;;;;5081394;28;20138;-60
2022/09/13 01:31:01;;;;;;;9.45;8.50;;;11.10;99.90;;;;;;5080265;28;20016;-60
2022/09/13 01:33:58;;;;;;;10.98;9.05;;;11.10;99.90;;;;;;5082982;28;20062;-61
2022/09/13 01:36:49;;;;;;;10.32;9.27;;;11.10;99.90;;;;;;5077057;28;20043;-62
2022/09/13 01:39:44;;;;;;;11.43;9.60;;;11.10;99.90;;;;;;5079668;28;20052;-59
2022/09/13 01:42:47;;;;;;;11.45;10.00;;;11.10;99.90;;;;;;5079121;28;20297;-59
2022/09/13 01:45:26;;;;;;;8.68;7.88;;;11.10;99.90;;;;;;5081550;28;20098;-59
2022/09/13 01:48:02;;;;;;;8.93;8.13;;;11.00;99.90;;;;;;5080453;28;20667;-59
2022/09/13 01:50:49;;;;;;;10.27;8.88;;;10.90;99.90;;;;;;5080532;28;20670;-59
2022/09/13 01:53:37;;;;;;;9.48;8.00;;;10.80;99.90;;;;;;5081303;28;20495;-59
2022/09/13 01:56:14;;;;;;;10.25;8.68;;;10.70;99.90;;;;;;5076019;28;20108;-60
2022/09/13 01:58:48;;;;;;;8.25;7.00;;;10.70;99.90;;;;;;5081874;28;20028;-62
2022/09/13 02:01:37;;;;;;;8.48;7.68;;;10.60;99.90;;;;;;5082723;28;20484;-59
2022/09/13 02:04:21;;;;;;;12.10;7.07;;;10.60;99.90;;;;;;5081760;28;20089;-63
2022/09/13 02:06:59;;;;;;;10.95;8.27;;;10.60;99.90;;;;;;5081493;28;20032;-61
2022/09/13 02:09:30;;;;;;;11.85;8.25;;;10.50;99.90;;;;;;5082635;28;20040;-61
2022/09/13 02:12:02;;;;;;;9.18;8.43;;;10.50;99.90;;;;;;5080171;28;20410;-59
2022/09/13 02:14:34;;;;;;;9.30;8.23;;;10.50;99.90;;;;;;5082596;28;20017;-60
2022/09/13 02:17:06;;;;;;;9.75;8.82;;;10.50;99.90;;;;;;5081503;28;20027;-60
2022/09/13 02:19:36;;;;;;;10.73;9.57;;;10.50;99.90;;;;;;5079713;28;20521;-61
2022/09/13 02:22:06;;;;;;;9.35;8.55;;;10.50;99.90;;;;;;5083495;28;20478;-60
2022/09/13 02:24:36;;;;;;;11.00;10.02;;;10.50;99.90;;;;;;5080001;28;20361;-63
2022/09/13 02:27:15;;;;;;;9.48;8.65;;;10.50;99.90;;;;;;5082290;28;20032;-60
2022/09/13 02:29:46;;;;;;;10.13;9.05;;;10.60;99.90;;;;;;5079251;28;20024;-62
2022/09/13 02:32:25;;;;;;;10.53;9.60;;;10.60;99.90;;;;;;5080034;28;20031;-60
2022/09/13 02:35:11;;;;;;;7.97;7.18;;;10.60;99.90;;;;;;5082032;28;20270;-60
2022/09/13 02:37:39;;;;;;;7.82;6.53;;;10.60;99.90;;;;;;5080162;28;20111;-60
2022/09/13 02:40:11;;;;;;;7.32;5.95;;;10.50;99.90;;;;;;5079239;28;20020;-59
2022/09/13 02:42:42;;;;;;;8.25;7.22;;;10.40;99.90;;;;;;5080917;28;20020;-60
2022/09/13 02:45:10;;;;;;;9.77;7.38;;;10.30;99.90;;;;;;5076105;28;20082;-60
2022/09/13 02:47:51;;;;;;;7.47;6.88;;;10.30;99.90;;;;;;5077357;28;20088;-61
2022/09/13 02:50:27;;;;;;;8.85;7.93;;;10.30;99.90;;;;;;5079316;28;20028;-59
2022/09/13 02:53:01;;;;;;;8.88;8.07;;;10.20;99.90;;;;;;5078988;28;20491;-60
2022/09/13 02:55:47;;;;;;;9.32;7.78;;;10.20;99.90;;;;;;5077940;28;20047;-58
2022/09/13 02:58:21;;;;;;;12.40;11.10;;;10.20;99.90;;;;;;5080306;28;20036;-59
2022/09/13 03:00:46;;;;;;;12.95;11.75;;;10.20;99.90;;;;;;5074117;28;20032;-59
2022/09/13 03:03:15;;;;;;;23.17;13.65;;;10.20;99.90;;;;;;5081005;28;20162;-59
2022/09/13 03:05:41;;;;;;;15.70;13.93;;;10.30;99.90;;;;;;5077830;28;20037;-61
2022/09/13 03:08:09;;;;;;;14.55;13.15;;;10.40;99.90;;;;;;5075671;28;20029;-59
2022/09/13 03:11:14;;;;;;;17.35;15.18;;;10.40;99.90;;;;;;5077491;28;20033;-60
2022/09/13 03:13:57;;;;;;;21.45;15.32;;;10.50;99.90;;;;;;5079739;28;20037;-59
2022/09/13 03:16:35;;;;;;;17.23;15.57;;;10.50;99.90;;;;;;5079179;28;20042;-62
2022/09/13 03:19:36;;;;;;;17.65;12.80;;;10.50;99.90;;;;;;5081493;28;20090;-60
2022/09/13 03:22:32;;;;;;;13.35;12.18;;;10.50;99.90;;;;;;5080693;28;20153;-59
2022/09/13 03:25:11;;;;;;;11.90;10.90;;;10.40;99.90;;;;;;5080375;28;20032;-60
2022/09/13 03:28:00;;;;;;;12.15;11.05;;;10.40;99.90;;;;;;5079835;28;20031;-60
2022/09/13 03:30:26;;;;;;;12.52;11.20;;;10.30;99.90;;;;;;5078066;28;20040;-59
2022/09/13 03:33:17;;;;;;;14.50;12.68;;;10.30;99.90;;;;;;5080451;28;20101;-62
2022/09/13 03:36:12;;;;;;;16.17;14.48;;;10.30;99.90;;;;;;5081760;28;20123;-60
2022/09/13 03:38:52;;;;;;;14.85;13.15;;;10.40;99.90;;;;;;5077929;28;20056;-60
2022/09/13 03:41:23;;;;;;;13.55;12.25;;;10.40;99.90;;;;;;5077485;28;20086;-60
2022/09/13 03:44:01;;;;;;;21.85;13.82;;;10.40;99.90;;;;;;5082223;28;20077;-61
2022/09/13 03:46:37;;;;;;;21.95;14.55;;;10.40;99.90;;;;;;5081405;28;20538;-61
2022/09/13 03:49:09;;;;;;;16.08;13.23;;;10.40;99.90;;;;;;5080863;28;20048;-64
2022/09/13 03:51:35;;;;;;;13.05;11.63;;;10.40;99.90;;;;;;5077040;28;20028;-61
2022/09/13 03:54:05;;;;;;;12.10;10.95;;;10.40;99.90;;;;;;5078185;28;20053;-62
2022/09/13 03:56:30;;;;;;;12.07;11.00;;;10.50;99.90;;;;;;5079253;28;20045;-59
2022/09/13 03:58:56;;;;;;;12.65;11.32;;;10.40;99.90;;;;;;5078210;28;20375;-59
2022/09/13 04:01:23;;;;;;;12.07;10.70;;;10.40;99.90;;;;;;5079155;28;20043;-59
2022/09/13 04:03:49;;;;;;;14.05;10.93;;;10.30;99.90;;;;;;5079259;28;20039;-62
2022/09/13 04:06:15;;;;;;;13.38;11.98;;;10.30;99.90;;;;;;5076594;28;20032;-61
2022/09/13 04:08:41;;;;;;;13.20;12.05;;;10.30;99.90;;;;;;5075902;28;20028;-59
2022/09/13 04:11:08;;;;;;;23.23;10.48;;;10.40;99.90;;;;;;5074845;28;20398;-59
2022/09/13 04:13:35;;;;;;;12.63;11.52;;;10.40;99.90;;;;;;5082333;28;20594;-60
2022/09/13 04:16:02;;;;;;;12.57;11.25;;;10.40;99.90;;;;;;5081539;28;20402;-60
2022/09/13 04:18:29;;;;;;;13.15;9.93;;;10.40;99.90;;;;;;5077468;28;20492;-62
2022/09/13 04:20:56;;;;;;;14.18;11.10;;;10.40;99.90;;;;;;5080735;28;20040;-59
2022/09/13 04:23:24;;;;;;;12.35;11.05;;;10.40;99.90;;;;;;5074778;28;20032;-60
2022/09/13 04:25:52;;;;;;;13.68;10.73;;;10.40;99.90;;;;;;5080478;28;20098;-61
2022/09/13 04:28:19;;;;;;;12.48;11.00;;;10.40;99.90;;;;;;5080532;28;21004;-60
2022/09/13 04:30:46;;;;;;;11.35;10.15;;;10.40;99.90;;;;;;5056598;28;20032;-61
2022/09/13 04:33:12;;;;;;;11.07;9.90;;;10.40;99.90;;;;;;5080208;28;20029;-60
2022/09/13 04:35:38;;;;;;;20.52;10.40;;;10.40;99.90;;;;;;5078888;28;20028;-61
2022/09/13 04:38:05;;;;;;;12.48;10.57;;;10.30;99.90;;;;;;5081858;28;20452;-62
2022/09/13 04:40:31;;;;;;;15.25;13.75;;;10.30;99.90;;;;;;5082786;28;20082;-60
2022/09/13 04:42:56;;;;;;;14.65;13.18;;;10.30;99.90;;;;;;5082259;28;20383;-59
2022/09/13 04:45:25;;;;;;;16.00;10.95;;;10.40;99.90;;;;;;5078796;28;20545;-62
2022/09/13 04:47:55;;;;;;;9.20;8.48;;;10.40;99.90;;;;;;5078770;28;20036;-59
2022/09/13 04:50:22;;;;;;;12.40;9.30;;;10.40;99.90;;;;;;5081083;28;20040;-61
2022/09/13 04:52:48;;;;;;;11.02;8.60;;;10.30;99.90;;;;;;5081970;28;20054;-60
2022/09/13 04:55:16;;;;;;;9.80;8.82;;;10.30;99.90;;;;;;5081742;28;20062;-59
2022/09/13 04:57:42;;;;;;;9.85;8.57;;;10.20;99.90;;;;;;5077409;28;20456;-62
2022/09/13 05:00:09;;;;;;;8.80;8.00;;;10.20;99.90;;;;;;5084886;28;20111;-59
2022/09/13 05:02:34;;;;;;;8.60;7.80;;;10.20;99.90;;;;;;5086055;28;20055;-60
2022/09/13 05:05:00;;;;;;;9.68;8.68;;;10.20;99.90;;;;;;5084418;28;20024;-63
2022/09/13 05:07:26;;;;;;;9.63;8.75;;;10.20;99.90;;;;;;5082382;28;20036;-61
2022/09/13 05:09:51;;;;;;;11.63;7.97;;;10.30;99.90;;;;;;5083497;28;20021;-59
2022/09/13 05:12:17;;;;;;;16.90;9.07;;;10.40;99.90;;;;;;5080261;28;20038;-60
2022/09/13 05:14:43;;;;;;;12.35;10.18;;;10.50;99.90;;;;;;5080189;28;20073;-62
2022/09/13 05:17:08;;;;;;;11.10;9.07;;;10.60;99.90;;;;;;5079028;28;20054;-60
2022/09/13 05:19:34;;;;;;;12.80;10.20;;;10.70;99.90;;;;;;5078721;28;20167;-59
2022/09/13 05:22:01;;;;;;;9.85;8.95;;;10.90;99.90;;;;;;5081549;28;20616;-59
2022/09/13 05:24:26;;;;;;;12.45;8.73;;;11.00;99.90;;;;;;5079330;28;20040;-61
2022/09/13 05:26:52;;;;;;;8.80;8.05;;;11.20;99.90;;;;;;5084202;28;20038;-60
2022/09/13 05:29:18;;;;;;;9.00;8.07;;;11.30;99.90;;;;;;5082887;28;20029;-60
2022/09/13 05:31:44;;;;;;;8.95;8.15;;;11.40;99.90;;;;;;5078654;28;20021;-59
2022/09/13 05:34:16;;;;;;;9.02;8.13;;;11.50;99.90;;;;;;5080867;28;20024;-60
2022/09/13 05:36:42;;;;;;;8.02;7.32;;;11.60;99.90;;;;;;5085411;28;20023;-60
2022/09/13 05:39:13;;;;;;;17.05;8.45;;;11.70;99.90;;;;;;5083674;28;20120;-60
2022/09/13 05:41:39;;;;;;;13.20;6.85;;;11.80;99.90;;;;;;5082481;28;20020;-61
2022/09/13 05:44:04;;;;;;;7.70;7.00;;;12.00;99.90;;;;;;5080257;28;20043;-61
2022/09/13 05:46:30;;;;;;;8.13;6.97;;;12.10;99.90;;;;;;5078563;28;20034;-61
2022/09/13 05:48:59;;;;;;;10.27;7.55;;;12.20;99.90;;;;;;5079086;28;20399;-59
2022/09/13 05:51:24;;;;;;;10.10;6.82;;;12.30;99.90;;;;;;5078188;28;20040;-60
2022/09/13 05:53:52;;;;;;;12.57;7.18;;;12.50;99.90;;;;;;5077527;28;20439;-60
2022/09/13 05:56:26;;;;;;;8.27;7.38;;;12.70;99.90;;;;;;5080095;28;20126;-62
2022/09/13 05:58:52;;;;;;;8.15;6.65;;;12.90;99.90;;;;;;5079552;28;20032;-60
2022/09/13 06:01:21;;;;;;;9.43;7.28;;;13.10;99.90;;;;;;5079087;28;20028;-60
2022/09/13 06:03:48;;;;;;;9.75;6.75;;;13.50;99.90;;;;;;5081022;28;20032;-60
2022/09/13 06:06:14;;;;;;;17.48;6.90;;;13.80;99.90;;;;;;5083508;28;20111;-63
2022/09/13 06:08:40;;;;;;;9.50;6.40;;;14.30;99.90;;;;;;5081112;28;20170;-60
2022/09/13 06:11:08;;;;;;;9.68;5.90;;;14.60;99.90;;;;;;5079538;28;20020;-64
2022/09/13 06:13:35;;;;;;;6.15;5.55;;;15.00;99.90;;;;;;5077327;28;20553;-61
2022/09/13 06:16:02;;;;;;;8.13;6.45;;;15.40;99.90;;;;;;5082019;28;20555;-60
2022/09/13 06:18:28;;;;;;;8.48;5.60;;;15.90;99.90;;;;;;5075103;28;20040;-62
2022/09/13 06:21:08;;;;;;;6.47;5.97;;;16.30;99.90;;;;;;5076531;28;20139;-60
2022/09/13 06:23:34;;;;;;;8.23;6.18;;;16.40;99.90;;;;;;5078594;28;20070;-62
2022/09/13 06:26:05;;;;;;;7.15;6.13;;;16.50;99.90;;;;;;5077524;28;20392;-63
2022/09/13 06:28:32;;;;;;;;;;;16.50;99.90;;;;;;5077556;28;20028;-61
2022/09/13 06:31:12;;;;;;;6.50;5.90;;;16.60;99.90;;;;;;5076960;28;19915;-63
2022/09/13 06:33:40;;;;;;;7.95;7.20;;;16.60;99.90;;;;;;5081773;28;20028;-63
2022/09/13 06:36:08;;;;;;;7.85;7.00;;;16.50;99.90;;;;;;5078049;28;20097;-61
2022/09/13 06:38:34;;;;;;;9.00;7.13;;;16.50;99.90;;;;;;5077623;28;20559;-63
2022/09/13 06:41:06;;;;;;;8.35;7.55;;;16.30;99.90;;;;;;5075422;28;20116;-61
2022/09/13 06:43:32;;;;;;;9.00;7.20;;;16.10;99.90;;;;;;5078113;28;20127;-62
2022/09/13 06:46:06;;;;;;;7.85;7.15;;;15.90;99.90;;;;;;5078810;28;20039;-63
2022/09/13 06:48:36;;;;;;;7.75;7.18;;;15.80;99.90;;;;;;5078731;28;20041;-62
2022/09/13 06:51:05;;;;;;;7.78;7.13;;;15.70;99.90;;;;;;5080471;28;20511;-61
2022/09/13 06:53:32;;;;;;;7.55;6.95;;;15.50;99.90;;;;;;5083765;28;20029;-65
2022/09/13 06:56:01;;;;;;;9.63;7.90;;;15.60;99.90;;;;;;5080559;28;20618;-61
2022/09/13 06:58:30;;;;;;;8.48;7.80;;;15.60;99.90;;;;;;5080009;28;20048;-61
2022/09/13 07:01:17;;;;;;;8.80;7.97;;;15.70;99.90;;;;;;5075097;28;20380;-61
2022/09/13 07:03:45;;;;;;;8.23;7.38;;;15.80;99.90;;;;;;5080076;28;20044;-60
2022/09/13 07:06:11;;;;;;;7.55;6.95;;;15.80;99.90;;;;;;5080584;28;20032;-59
2022/09/13 07:08:38;;;;;;;10.32;7.80;;;15.70;99.90;;;;;;5081906;28;20025;-61
2022/09/13 07:11:03;;;;;;;8.70;7.80;;;15.80;99.90;;;;;;5079514;28;20024;-62
2022/09/13 07:13:29;;;;;;;8.02;7.40;;;16.30;99.90;;;;;;5075986;28;20488;-62
2022/09/13 07:15:55;;;;;;;9.07;7.43;;;16.60;99.90;;;;;;5076612;28;20024;-60
2022/09/13 07:18:20;;;;;;;8.63;7.20;;;16.90;99.90;;;;;;5063029;28;20044;-60
2022/09/13 07:20:46;;;;;;;8.02;7.30;;;17.30;99.90;;;;;;5076653;28;20119;-60
2022/09/13 07:23:12;;;;;;;9.60;7.03;;;18.00;99.90;;;;;;5080434;28;20084;-60
2022/09/13 07:25:37;;;;;;;7.20;6.47;;;18.60;99.90;;;;;;5080435;28;20032;-62
2022/09/13 07:28:03;;;;;;;7.32;6.72;;;19.40;99.90;;;;;;5074747;28;20044;-61
2022/09/13 07:30:28;;;;;;;7.82;7.13;;;19.70;99.90;;;;;;5081097;28;20461;-60
2022/09/13 07:32:54;;;;;;;7.30;6.63;;;19.70;99.90;;;;;;5080459;28;20032;-60
2022/09/13 07:35:20;;;;;;;7.68;6.97;;;19.40;99.90;;;;;;5079093;28;20028;-60
2022/09/13 07:37:45;;;;;;;7.30;6.70;;;18.90;99.90;;;;;;5076785;28;20501;-62
2022/09/13 07:40:11;;;;;;;8.23;7.50;;;18.70;99.90;;;;;;5076988;28;20504;-60
2022/09/13 07:42:37;;;;;;;8.57;7.82;;;18.20;99.90;;;;;;5074874;28;20103;-60
2022/09/13 07:45:03;;;;;;;8.93;7.63;;;17.90;99.90;;;;;;5079064;28;20039;-61
2022/09/13 07:47:32;;;;;;;8.75;8.00;;;17.80;99.90;;;;;;5077517;28;20193;-60
2022/09/13 07:49:58;;;;;;;7.97;7.32;;;17.50;99.90;;;;;;5078888;28;20578;-64
2022/09/13 07:52:23;;;;;;;9.18;8.48;;;17.40;99.90;;;;;;5082351;28;20043;-60
2022/09/13 07:54:49;;;;;;;9.02;7.95;;;17.20;99.90;;;;;;5077706;28;20036;-60
2022/09/13 07:57:15;;;;;;;8.43;7.63;;;17.10;99.90;;;;;;5075638;28;20067;-60
2022/09/13 07:59:40;;;;;;;9.05;8.20;;;17.10;99.90;;;;;;5075811;28;20052;-60
2022/09/13 08:02:08;;;;;;;9.13;8.35;;;17.20;99.90;;;;;;5077160;28;20041;-63
2022/09/13 08:04:34;;;;;;;8.85;8.15;;;17.40;99.90;;;;;;5077946;28;20032;-62
2022/09/13 08:07:00;;;;;;;8.75;7.95;;;17.70;99.90;;;;;;5076421;28;20383;-62
2022/09/13 08:09:26;;;;;;;8.38;7.68;;;18.10;99.90;;;;;;5078642;28;20032;-61
2022/09/13 08:11:52;;;;;;;9.00;8.18;;;19.00;99.90;;;;;;5080003;28;20039;-60
2022/09/13 08:14:19;;;;;;;8.65;7.80;;;20.10;99.90;;;;;;5069054;28;20025;-61
2022/09/13 08:16:45;;;;;;;8.32;7.65;;;21.10;99.90;;;;;;5082243;28;20523;-62
2022/09/13 08:19:13;;;;;;;8.38;7.65;;;21.70;99.90;;;;;;5080547;28;20449;-61
2022/09/13 08:21:40;;;;;;;7.60;6.90;;;22.10;99.90;;;;;;5078308;28;20095;-63
2022/09/13 08:24:12;;;;;;;7.55;6.95;;;22.40;99.90;;;;;;5083430;28;20020;-62
2022/09/13 08:26:38;;;;;;;6.57;5.97;;;23.30;99.90;;;;;;5079626;28;20029;-60
2022/09/13 08:29:05;;;;;;;7.03;6.53;;;23.50;99.90;;;;;;5083125;28;20032;-61
2022/09/13 08:31:31;;;;;;;7.50;6.72;;;23.10;99.90;;;;;;5079453;28;20387;-62
2022/09/13 08:33:58;;;;;;;7.28;6.55;;;23.30;99.90;;;;;;5082907;28;20029;-61
2022/09/13 08:36:25;;;;;;;7.60;6.90;;;23.10;99.90;;;;;;5080678;28;20029;-60
2022/09/13 08:38:57;;;;;;;7.28;6.57;;;23.30;99.90;;;;;;5086334;28;20139;-60
2022/09/13 08:41:32;;;;;;;7.65;7.00;;;22.50;99.90;;;;;;5084239;28;20021;-61
2022/09/13 08:44:30;;;;;;;7.25;6.75;;;22.30;99.90;;;;;;5078835;28;20086;-60
2022/09/13 08:46:58;;;;;;;6.75;6.15;;;22.10;99.90;;;;;;5037020;28;20070;-60
2022/09/13 08:49:40;;;;;;;7.78;7.10;;;22.30;99.90;;;;;;5077279;28;20067;-61
2022/09/13 08:52:18;;;;;;;6.93;6.32;;;22.50;99.90;;;;;;5083819;28;20512;-62
2022/09/13 08:54:44;;;;;;;6.32;5.90;;;22.90;99.90;;;;;;5080254;28;20126;-61
2022/09/13 08:57:26;;;;;;;8.25;7.40;;;23.30;99.90;;;;;;5082581;28;20115;-61
2022/09/13 09:00:01;;;;;;;6.80;6.25;;;23.30;99.90;;;;;;5083119;28;20020;-61
2022/09/13 09:03:04;;;;;;;6.60;6.10;;;23.00;99.90;;;;;;5078934;28;20033;-60
2022/09/13 09:05:33;;;;;;;7.05;6.10;;;22.80;99.90;;;;;;5081872;28;20106;-64
2022/09/13 09:08:17;;;;;;;6.78;6.00;;;22.30;99.90;;;;;;5085269;28;20028;-60
2022/09/13 09:10:49;;;;;;;5.82;5.43;;;21.70;99.90;;;;;;5082290;28;20483;-61
2022/09/13 09:13:41;;;;;;;5.55;5.15;;;21.20;99.90;;;;;;5080675;28;20072;-62
2022/09/13 09:16:29;;;;;;;7.85;7.22;;;20.90;99.90;;;;;;5084008;28;20506;-61
2022/09/13 09:18:58;;;;;;;6.95;6.25;;;20.40;99.90;;;;;;5079135;28;20029;-61
2022/09/13 09:21:25;;;;;;;6.05;5.53;;;20.20;99.90;;;;;;5082483;28;20036;-62
2022/09/13 09:23:51;;;;;;;5.65;5.25;;;19.90;99.90;;;;;;5082109;28;20039;-61
2022/09/13 09:26:29;;;;;;;5.63;5.20;;;19.70;99.90;;;;;;5080467;28;20035;-62
2022/09/13 09:29:04;;;;;;;6.28;5.68;;;19.60;99.90;;;;;;5081515;28;20106;-60
2022/09/13 09:31:48;;;;;;;7.13;6.53;;;19.40;99.90;;;;;;5080243;28;20028;-61
2022/09/13 09:34:41;;;;;;;6.60;6.03;;;19.40;99.90;;;;;;5080707;28;20037;-63
2022/09/13 09:37:20;;;;;;;7.32;5.95;;;19.50;99.90;;;;;;5082252;28;20107;-60
2022/09/13 09:39:46;;;;;;;6.38;5.80;;;19.80;99.90;;;;;;5081056;28;20043;-60
2022/09/13 09:42:17;;;;;;;5.82;5.43;;;19.90;99.90;;;;;;5075639;28;20484;-61
2022/09/13 09:44:48;;;;;;;6.00;5.40;;;20.20;99.90;;;;;;5078816;28;20028;-61
2022/09/13 09:47:21;;;;;;;7.50;5.72;;;20.60;99.90;;;;;;5082043;28;20049;-60
2022/09/13 09:50:13;;;;;;;6.43;5.93;;;20.90;99.90;;;;;;5081956;28;20527;-61
2022/09/13 09:52:44;;;;;;;5.97;5.45;;;21.40;99.90;;;;;;5068895;28;20154;-61
2022/09/13 09:55:28;;;;;;;4.97;4.53;;;21.80;99.90;;;;;;5078593;28;20024;-61
2022/09/13 09:58:05;;;;;;;5.22;4.72;;;21.90;99.90;;;;;;5077960;28;20103;-62
2022/09/13 10:00:34;;;;;;;6.20;5.72;;;21.70;99.90;;;;;;5078046;28;20027;-62
2022/09/13 10:03:16;;;;;;;8.10;5.53;;;21.20;99.90;;;;;;5082311;28;20043;-62
2022/09/13 10:05:43;;;;;;;5.50;5.03;;;20.90;99.90;;;;;;5082560;28;20020;-62
2022/09/13 10:08:30;;;;;;;5.50;5.05;;;20.80;99.90;;;;;;5077559;28;20028;-65
2022/09/13 10:11:01;;;;;;;5.22;4.82;;;20.70;99.90;;;;;;5079426;28;20024;-62
2022/09/13 10:13:27;;;;;;;5.72;5.32;;;20.60;99.90;;;;;;5078671;28;20638;-61
2022/09/13 10:16:17;;;;;;;5.65;5.25;;;20.70;99.90;;;;;;5080091;28;20115;-65
2022/09/13 10:18:43;;;;;;;4.97;4.57;;;20.80;99.90;;;;;;5081352;28;20050;-65
2022/09/13 10:21:17;;;;;;;5.40;5.00;;;21.00;99.90;;;;;;5078188;28;20033;-65
2022/09/13 10:23:44;;;;;;;4.53;4.13;;;21.30;99.90;;;;;;5078418;28;20020;-64
2022/09/13 10:26:14;;;;;;;4.18;3.88;;;21.50;99.90;;;;;;5079754;28;20021;-65
2022/09/13 10:28:50;;;;;;;5.15;4.22;;;21.80;99.90;;;;;;5078175;28;20064;-63
2022/09/13 10:31:18;;;;;;;9.02;4.50;;;22.20;99.90;;;;;;5068183;28;20040;-65
2022/09/13 10:33:50;;;;;;;4.10;3.70;;;22.30;99.90;;;;;;5082845;28;20532;-66
2022/09/13 10:36:19;;;;;;;3.67;3.38;;;22.50;99.90;;;;;;5080443;28;20103;-66
2022/09/13 10:39:19;;;;;;;5.63;3.70;;;22.50;99.90;;;;;;5081060;28;20025;-65
2022/09/13 10:42:05;;;;;;;4.22;3.88;;;22.10;99.90;;;;;;5079516;28;20108;-66
2022/09/13 10:45:05;;;;;;;4.47;4.10;;;21.80;99.90;;;;;;5081734;28;20115;-65
2022/09/13 10:47:38;;;;;;;4.65;4.18;;;21.70;99.90;;;;;;5074670;28;20709;-66
2022/09/13 10:50:17;;;;;;;5.10;4.63;;;21.50;99.90;;;;;;5078838;28;20040;-66
2022/09/13 10:52:45;;;;;;;4.80;4.28;;;21.40;99.90;;;;;;5079865;28;20039;-66
2022/09/13 10:55:17;;;;;;;4.82;4.43;;;21.40;99.90;;;;;;5073702;28;20107;-65
2022/09/13 10:57:47;;;;;;;5.55;5.15;;;21.30;99.90;;;;;;5076983;28;20024;-66
2022/09/13 11:00:16;;;;;;;5.50;5.00;;;21.40;99.90;;;;;;5078420;28;20130;-65
2022/09/13 11:02:54;;;;;;;4.88;4.47;;;21.50;99.90;;;;;;5079339;28;20536;-66
2022/09/13 11:05:56;;;;;;;4.97;4.50;;;22.00;99.90;;;;;;5084025;28;20050;-68
2022/09/13 11:08:30;;;;;;;5.90;4.07;;;22.60;99.90;;;;;;5080136;28;20039;-69
2022/09/13 11:11:37;;;;;;;5.03;4.63;;;22.80;99.90;;;;;;5078073;28;20495;-66
2022/09/13 11:14:21;;;;;;;4.40;4.07;;;23.40;99.90;;;;;;5016782;28;20037;-66
2022/09/13 11:16:53;;;;;;;4.78;4.38;;;23.70;99.90;;;;;;5076630;28;20048;-65
2022/09/13 11:19:46;;;;;;;4.53;3.95;;;24.30;99.90;;;;;;5078667;28;20074;-66
2022/09/13 11:22:33;;;;;;;4.15;3.85;;;24.90;99.90;;;;;;5060820;28;20027;-67
2022/09/13 11:25:10;;;;;;;4.10;3.80;;;25.70;98.30;;;;;;5080712;28;20024;-67
2022/09/13 11:27:39;;;;;;;6.82;4.22;;;26.10;94.20;;;;;;5075427;28;20020;-71
2022/09/13 11:30:35;;;;;;;5.47;4.30;;;26.20;84.90;;;;;;5082360;28;20028;-68
2022/09/13 11:33:15;;;;;;;4.28;3.88;;;26.20;82.80;;;;;;5078790;28;20036;-66
2022/09/13 11:35:47;;;;;;;3.65;3.35;;;26.60;87.70;;;;;;5079988;28;20074;-65
2022/09/13 11:38:15;;;;;;;3.17;2.95;;;26.80;83.00;;;;;;5078651;28;20031;-67
2022/09/13 11:40:41;;;;;;;3.03;2.70;;;27.00;81.80;;;;;;5075269;28;20025;-66
2022/09/13 11:43:15;;;;;;;2.78;2.33;;;27.20;80.70;;;;;;5084539;28;20037;-70
2022/09/13 11:45:53;;;;;;;4.70;3.13;;;27.70;80.10;;;;;;5077082;28;20452;-69
2022/09/13 11:48:40;;;;;;;4.07;3.03;;;28.20;70.30;;;;;;5075256;28;20119;-67
2022/09/13 11:51:06;;;;;;;2.33;2.20;;;28.20;67.80;;;;;;5077090;28;20032;-67
2022/09/13 11:53:56;;;;;;;3.13;2.92;;;27.80;67.60;;;;;;5078977;28;20043;-67
2022/09/13 11:56:45;;;;;;;3.00;2.28;;;27.60;67.70;;;;;;5077537;28;20497;-65
2022/09/13 11:59:35;;;;;;;3.20;3.00;;;27.60;70.70;;;;;;5078456;28;20100;-66
2022/09/13 12:02:29;;;;;;;4.17;2.50;;;27.70;68.40;;;;;;5078182;28;20117;-72
2022/09/13 12:05:04;;;;;;;2.83;2.63;;;27.70;72.40;;;;;;5075540;28;20063;-66
2022/09/13 12:08:08;;;;;;;2.90;2.70;;;27.90;70.70;;;;;;5078185;28;20203;-68
2022/09/13 12:10:42;;;;;;;2.60;2.40;;;28.10;66.70;;;;;;5079064;28;20488;-66
2022/09/13 12:13:17;;;;;;;2.40;2.10;;;28.20;69.40;;;;;;5073905;28;20060;-68
2022/09/13 12:15:45;;;;;;;2.40;2.08;;;28.10;73.50;;;;;;5080392;28;20078;-66
2022/09/13 12:18:35;;;;;;;5.40;2.40;;;28.20;69.70;;;;;;5080182;28;20043;-68
2022/09/13 12:21:13;;;;;;;3.15;2.25;;;28.30;69.30;;;;;;5078392;28;20491;-66
2022/09/13 12:23:49;;;;;;;5.13;2.30;;;28.30;67.80;;;;;;5078154;28;20032;-69
2022/09/13 12:26:25;;;;;;;4.07;2.20;;;28.30;68.80;;;;;;5080969;28;20028;-66
2022/09/13 12:28:56;;;;;;;2.35;2.15;;;28.40;68.40;;;;;;5079581;28;20032;-66
2022/09/13 12:31:26;;;;;;;2.53;2.33;;;28.40;67.20;;;;;;5079883;28;20097;-66
2022/09/13 12:33:52;;;;;;;3.55;2.15;;;28.40;68.20;;;;;;5077324;28;20020;-66
2022/09/13 12:36:27;;;;;;;2.83;2.50;;;28.70;70.80;;;;;;5075068;28;20085;-66
2022/09/13 12:39:22;;;;;;;5.82;2.38;;;28.90;66.50;;;;;;5079985;28;20021;-66
2022/09/13 12:42:08;;;;;;;3.10;2.30;;;28.90;63.80;;;;;;5007899;28;20032;-66
2022/09/13 12:44:58;;;;;;;2.20;2.00;;;28.70;66.00;;;;;;5060847;28;20021;-68
2022/09/13 12:48:09;;;;;;;2.22;2.00;;;28.40;69.00;;;;;;5054331;28;20507;-66
2022/09/13 12:50:46;;;;;;;2.63;2.42;;;28.10;69.80;;;;;;5060062;28;20037;-69
2022/09/13 12:53:48;;;;;;;3.08;2.30;;;27.80;66.80;;;;;;5056914;28;20070;-66
2022/09/13 12:56:29;;;;;;;2.55;2.35;;;27.60;72.70;;;;;;5057246;28;20028;-69
2022/09/13 12:59:14;;;;;;;2.92;2.00;;;27.80;70.80;;;;;;5040736;28;20025;-65
2022/09/13 13:01:46;;;;;;;2.38;2.17;;;28.10;70.90;;;;;;5060889;28;20033;-66
2022/09/13 13:04:14;;;;;;;6.43;2.67;;;28.20;68.90;;;;;;5062191;28;20025;-66
2022/09/13 13:07:01;;;;;;;2.40;2.30;;;28.30;70.90;;;;;;5065372;28;20020;-66
2022/09/13 13:09:34;;;;;;;2.55;2.10;;;28.40;69.80;;;;;;5058489;28;20595;-68
2022/09/13 13:12:00;;;;;;;2.72;2.53;;;28.40;70.30;;;;;;5058211;28;20468;-68
2022/09/13 13:14:38;;;;;;;4.95;2.47;;;28.60;67.90;;;;;;5063381;28;20556;-66